Time;durP1;ratioP1;P1;durP2;ratioP2;P2;SDS_P1;SDS_P2;PMS_P1;PMS_P2;Temp;Humidity;BMP_temperature;BMP_pressure;BME280_temperature;BME280_humidity;BME280_pressure;Samples;Min_cycle;Max_cycle;Signal;HPM_P1;HPM_P2
2022/12/31 00:00:29;;;;;;;1.90;0.98;;;;;;;;;;5052731;28;20033;-83
2022/12/31 00:02:54;;;;;;;1.42;0.90;;;;;;;;;;5052435;28;20021;-84
2022/12/31 00:05:19;;;;;;;1.15;0.90;;;;;;;;;;5053226;28;20024;-84
2022/12/31 00:07:44;;;;;;;2.00;0.90;;;;;;;;;;5054047;28;20028;-84
2022/12/31 00:10:09;;;;;;;2.55;0.98;;;;;;;;;;5051006;28;20021;-84
2022/12/31 00:12:35;;;;;;;1.60;1.02;;;;;;;;;;5054037;28;20017;-84
2022/12/31 00:15:00;;;;;;;1.30;0.80;;;;;;;;;;5052763;28;20044;-84
2022/12/31 00:17:25;;;;;;;1.45;0.63;;;;;;;;;;5052445;28;20384;-85
2022/12/31 00:19:50;;;;;;;2.58;0.90;;;;;;;;;;5052432;28;20033;-84
2022/12/31 00:22:15;;;;;;;3.92;1.13;;;;;;;;;;5052016;28;20385;-84
2022/12/31 00:24:41;;;;;;;1.73;1.00;;;;;;;;;;5054056;28;20044;-84
2022/12/31 00:27:06;;;;;;;1.38;0.88;;;;;;;;;;5051454;28;20123;-85
2022/12/31 00:29:31;;;;;;;1.20;0.90;;;;;;;;;;5053680;28;20019;-84
2022/12/31 00:31:56;;;;;;;1.20;0.80;;;;;;;;;;5053555;28;20044;-84
2022/12/31 00:34:22;;;;;;;1.50;0.95;;;;;;;;;;5052586;28;20032;-83
2022/12/31 00:36:47;;;;;;;1.30;0.63;;;;;;;;;;5051868;28;20365;-83
2022/12/31 00:39:12;;;;;;;2.15;0.77;;;;;;;;;;5053395;28;20048;-83
2022/12/31 00:41:37;;;;;;;0.73;0.60;;;;;;;;;;5052082;28;20025;-83
2022/12/31 00:44:03;;;;;;;0.60;0.60;;;;;;;;;;5051906;28;20013;-84
2022/12/31 00:46:28;;;;;;;1.33;0.70;;;;;;;;;;5051818;28;20020;-83
2022/12/31 00:48:53;;;;;;;0.70;0.50;;;;;;;;;;5052131;28;20448;-84
2022/12/31 00:51:20;;;;;;;1.42;0.52;;;;;;;;;;5052050;28;20412;-84
2022/12/31 00:53:45;;;;;;;0.80;0.50;;;;;;;;;;5052058;28;20372;-83
2022/12/31 00:56:12;;;;;;;0.65;0.50;;;;;;;;;;5051959;28;20181;-83
2022/12/31 00:58:38;;;;;;;0.63;0.47;;;;;;;;;;5050432;28;20064;-84
2022/12/31 01:01:07;;;;;;;4.10;0.70;;;;;;;;;;5052922;28;20089;-84
2022/12/31 01:03:32;;;;;;;1.77;0.40;;;;;;;;;;5051667;28;20043;-84
2022/12/31 01:05:58;;;;;;;0.68;0.30;;;;;;;;;;5051819;28;20532;-84
2022/12/31 01:08:23;;;;;;;0.55;0.40;;;;;;;;;;5052783;28;20020;-83
2022/12/31 01:13:32;;;;;;;0.80;0.30;;;;;;;;;;5051116;28;20075;-84
2022/12/31 01:15:57;;;;;;;0.30;0.30;;;;;;;;;;5050274;28;20037;-83
2022/12/31 01:18:23;;;;;;;0.55;0.30;;;;;;;;;;5051091;28;20033;-85
2022/12/31 01:20:48;;;;;;;0.20;0.20;;;;;;;;;;5051304;28;20100;-83
2022/12/31 01:23:13;;;;;;;0.52;0.20;;;;;;;;;;5052307;28;20025;-83
2022/12/31 01:25:40;;;;;;;0.30;0.20;;;;;;;;;;5051512;28;20027;-82
2022/12/31 01:28:06;;;;;;;0.22;0.13;;;;;;;;;;5051158;28;20424;-83
2022/12/31 01:30:31;;;;;;;0.55;0.20;;;;;;;;;;5050040;28;20049;-82
2022/12/31 01:32:57;;;;;;;0.65;0.30;;;;;;;;;;5051083;28;20029;-83
2022/12/31 01:35:22;;;;;;;0.38;0.30;;;;;;;;;;5051519;28;20067;-83
2022/12/31 01:37:47;;;;;;;0.73;0.30;;;;;;;;;;5051251;28;20021;-82
2022/12/31 01:40:12;;;;;;;0.15;0.10;;;;;;;;;;5050641;28;20119;-84
2022/12/31 01:42:38;;;;;;;1.33;0.30;;;;;;;;;;5050629;28;20063;-80
2022/12/31 01:45:08;;;;;;;0.82;0.40;;;;;;;;;;5051415;28;20017;-81
2022/12/31 01:47:44;;;;;;;3.42;0.20;;;;;;;;;;5049735;28;20029;-81
2022/12/31 01:50:15;;;;;;;2.15;0.20;;;;;;;;;;5052126;28;20029;-81
2022/12/31 01:52:43;;;;;;;4.90;0.27;;;;;;;;;;5050162;28;20036;-81
2022/12/31 01:55:38;;;;;;;0.20;0.17;;;;;;;;;;5050814;28;20292;-82
2022/12/31 01:58:24;;;;;;;2.22;1.00;;;;;;;;;;5044729;28;20500;-82
2022/12/31 02:00:51;;;;;;;0.10;0.10;;;;;;;;;;5049343;28;20041;-82
2022/12/31 02:03:16;;;;;;;0.55;0.20;;;;;;;;;;5051543;28;20413;-82
2022/12/31 02:05:48;;;;;;;1.52;0.52;;;;;;;;;;5050590;28;20017;-81
2022/12/31 02:08:13;;;;;;;0.20;0.10;;;;;;;;;;5050337;28;20465;-81
2022/12/31 02:10:38;;;;;;;1.15;0.17;;;;;;;;;;5050654;28;20021;-82
2022/12/31 02:13:04;;;;;;;0.00;0.00;;;;;;;;;;5050235;28;20032;-83
2022/12/31 02:15:52;;;;;;;0.10;0.10;;;;;;;;;;5050403;28;20024;-83
2022/12/31 02:18:24;;;;;;;0.32;0.10;;;;;;;;;;5045751;28;20163;-83
2022/12/31 02:21:07;;;;;;;0.40;0.10;;;;;;;;;;5051726;28;20086;-82
2022/12/31 02:23:35;;;;;;;0.30;0.10;;;;;;;;;;5050164;28;20013;-82
2022/12/31 02:26:17;;;;;;;0.20;0.10;;;;;;;;;;5050287;28;20021;-83
2022/12/31 02:29:00;;;;;;;0.05;0.05;;;;;;;;;;5049986;28;20303;-82
2022/12/31 02:31:32;;;;;;;0.68;0.20;;;;;;;;;;5050272;28;20071;-82
2022/12/31 02:34:05;;;;;;;0.85;0.20;;;;;;;;;;5049228;28;20020;-83
2022/12/31 02:36:35;;;;;;;0.10;0.10;;;;;;;;;;5050358;28;20055;-82
2022/12/31 02:39:01;;;;;;;0.20;0.20;;;;;;;;;;5049732;28;20151;-82
2022/12/31 02:44:25;;;;;;;1.58;0.22;;;;;;;;;;5050637;28;20094;-82
2022/12/31 02:46:58;;;;;;;0.60;0.30;;;;;;;;;;5049916;28;20021;-83
2022/12/31 02:49:29;;;;;;;1.27;0.45;;;;;;;;;;5050118;28;20013;-82
2022/12/31 02:52:01;;;;;;;1.70;0.30;;;;;;;;;;5049897;28;20376;-82
2022/12/31 02:54:37;;;;;;;3.10;0.52;;;;;;;;;;5049849;28;20386;-82
2022/12/31 02:57:03;;;;;;;1.42;0.40;;;;;;;;;;5048171;28;20558;-82
2022/12/31 03:02:26;;;;;;;0.98;0.50;;;;;;;;;;5051437;28;20059;-82
2022/12/31 03:04:53;;;;;;;3.97;0.60;;;;;;;;;;5049828;28;20048;-82
2022/12/31 03:07:20;;;;;;;3.05;0.73;;;;;;;;;;5049568;28;20376;-82
2022/12/31 03:09:49;;;;;;;5.22;0.90;;;;;;;;;;5054184;28;20058;-82
2022/12/31 03:14:58;;;;;;;2.00;0.35;;;;;;;;;;5055281;28;20028;-82
2022/12/31 03:17:23;;;;;;;2.47;0.43;;;;;;;;;;5053627;28;20037;-84
2022/12/31 03:22:35;;;;;;;3.20;0.50;;;;;;;;;;5054955;28;20051;-83
2022/12/31 03:27:44;;;;;;;5.40;0.60;;;;;;;;;;5053867;28;20090;-83
2022/12/31 03:30:11;;;;;;;5.20;0.60;;;;;;;;;;5053606;28;20388;-83
2022/12/31 03:32:36;;;;;;;4.32;0.68;;;;;;;;;;5053168;28;20017;-83
2022/12/31 03:35:01;;;;;;;2.88;0.75;;;;;;;;;;5058841;28;20073;-83
2022/12/31 03:37:26;;;;;;;3.70;0.57;;;;;;;;;;5072975;28;20016;-83
2022/12/31 03:39:52;;;;;;;2.30;0.45;;;;;;;;;;5074820;28;20089;-84
2022/12/31 03:42:17;;;;;;;3.38;0.60;;;;;;;;;;5073128;28;20035;-83
2022/12/31 03:44:42;;;;;;;1.88;0.50;;;;;;;;;;5063219;28;20112;-83
2022/12/31 03:47:07;;;;;;;1.88;0.40;;;;;;;;;;5073046;28;20103;-84
2022/12/31 03:49:32;;;;;;;1.17;0.50;;;;;;;;;;5073156;28;20042;-83
2022/12/31 03:51:58;;;;;;;3.80;1.00;;;;;;;;;;5072606;28;20044;-84
2022/12/31 03:54:23;;;;;;;5.65;0.70;;;;;;;;;;5073071;28;20359;-84
2022/12/31 03:56:48;;;;;;;3.35;0.90;;;;;;;;;;5072754;28;20015;-84
2022/12/31 03:59:14;;;;;;;3.58;0.40;;;;;;;;;;5069552;28;20033;-83
2022/12/31 04:01:39;;;;;;;3.22;0.52;;;;;;;;;;5053865;28;20392;-85
2022/12/31 04:04:04;;;;;;;1.60;0.40;;;;;;;;;;5068792;28;20044;-84
2022/12/31 04:06:29;;;;;;;1.50;0.70;;;;;;;;;;5072824;28;20578;-85
2022/12/31 04:08:54;;;;;;;3.80;0.60;;;;;;;;;;5072432;28;20013;-84
2022/12/31 04:11:20;;;;;;;3.03;0.50;;;;;;;;;;5064889;28;20043;-85
2022/12/31 04:13:45;;;;;;;2.88;0.50;;;;;;;;;;5073824;28;20028;-85
2022/12/31 04:16:10;;;;;;;1.55;0.45;;;;;;;;;;5063646;28;20195;-85
2022/12/31 04:18:35;;;;;;;3.90;0.93;;;;;;;;;;5066801;28;20032;-84
2022/12/31 04:21:01;;;;;;;1.15;0.40;;;;;;;;;;5069368;28;20453;-84
2022/12/31 04:23:26;;;;;;;2.67;0.40;;;;;;;;;;5064896;28;20025;-85
2022/12/31 04:25:52;;;;;;;2.30;0.40;;;;;;;;;;5072709;28;20692;-85
2022/12/31 04:28:17;;;;;;;0.65;0.30;;;;;;;;;;5065822;28;20045;-84
2022/12/31 04:30:42;;;;;;;3.42;0.65;;;;;;;;;;5071736;28;20395;-84
2022/12/31 04:33:07;;;;;;;3.10;0.40;;;;;;;;;;5072089;28;20510;-85
2022/12/31 04:35:33;;;;;;;4.50;0.50;;;;;;;;;;5072221;28;20051;-84
2022/12/31 04:37:58;;;;;;;3.47;0.52;;;;;;;;;;5072148;28;20016;-85
2022/12/31 04:40:23;;;;;;;1.95;0.50;;;;;;;;;;5070161;28;20059;-85
2022/12/31 04:42:48;;;;;;;2.55;0.50;;;;;;;;;;5069572;28;20018;-84
2022/12/31 04:45:13;;;;;;;0.88;0.38;;;;;;;;;;5072217;28;20092;-85
2022/12/31 04:47:38;;;;;;;3.30;0.82;;;;;;;;;;5072963;28;20029;-85
2022/12/31 04:50:04;;;;;;;4.25;0.60;;;;;;;;;;5072055;28;20040;-85
2022/12/31 04:52:29;;;;;;;2.65;0.50;;;;;;;;;;5071861;28;20035;-85
2022/12/31 04:54:54;;;;;;;5.07;0.52;;;;;;;;;;5071893;28;20121;-84
2022/12/31 04:57:20;;;;;;;2.40;0.47;;;;;;;;;;5061371;28;20021;-85
2022/12/31 04:59:45;;;;;;;2.88;0.40;;;;;;;;;;5068258;28;20527;-85
2022/12/31 05:02:10;;;;;;;1.90;0.45;;;;;;;;;;5071632;28;20013;-84
2022/12/31 05:04:35;;;;;;;2.00;0.60;;;;;;;;;;5071709;28;20020;-85
2022/12/31 05:07:01;;;;;;;3.38;0.60;;;;;;;;;;5071663;28;20030;-84
2022/12/31 05:09:27;;;;;;;1.08;0.32;;;;;;;;;;5070047;28;20025;-84
2022/12/31 05:11:52;;;;;;;2.17;0.40;;;;;;;;;;5069517;28;20017;-84
2022/12/31 05:14:17;;;;;;;2.20;0.50;;;;;;;;;;5061771;28;20017;-85
2022/12/31 05:16:42;;;;;;;2.30;0.30;;;;;;;;;;5071443;28;20119;-84
2022/12/31 05:19:08;;;;;;;3.50;0.45;;;;;;;;;;5071313;28;20426;-85
2022/12/31 05:21:34;;;;;;;2.95;0.47;;;;;;;;;;5071478;28;20036;-86
2022/12/31 05:23:59;;;;;;;2.42;0.38;;;;;;;;;;5072847;28;20436;-85
2022/12/31 05:26:24;;;;;;;2.70;0.45;;;;;;;;;;5071495;28;20383;-85
2022/12/31 05:28:49;;;;;;;0.65;0.45;;;;;;;;;;5068181;28;20016;-84
2022/12/31 05:31:14;;;;;;;4.10;0.40;;;;;;;;;;5072560;28;20024;-86
2022/12/31 05:33:40;;;;;;;1.98;0.30;;;;;;;;;;5057318;28;20036;-85
2022/12/31 05:36:05;;;;;;;2.92;0.30;;;;;;;;;;5072668;28;20411;-86
2022/12/31 05:38:30;;;;;;;1.75;0.40;;;;;;;;;;5071557;28;20040;-85
2022/12/31 05:41:00;;;;;;;2.80;0.30;;;;;;;;;;5071213;28;20096;-86
2022/12/31 05:43:25;;;;;;;2.20;0.60;;;;;;;;;;5072193;28;20020;-85
2022/12/31 05:45:50;;;;;;;2.05;0.40;;;;;;;;;;5056679;28;20139;-86
2022/12/31 05:48:15;;;;;;;2.03;0.40;;;;;;;;;;5070543;28;20531;-86
2022/12/31 05:50:41;;;;;;;1.30;0.30;;;;;;;;;;5071027;28;20031;-84
2022/12/31 05:53:06;;;;;;;2.50;0.40;;;;;;;;;;5070168;28;20031;-85
2022/12/31 05:55:31;;;;;;;2.60;0.43;;;;;;;;;;5071375;28;20035;-86
2022/12/31 05:57:56;;;;;;;2.08;0.40;;;;;;;;;;5070558;28;20440;-85
2022/12/31 06:00:21;;;;;;;1.20;0.35;;;;;;;;;;5067619;28;20031;-86
2022/12/31 06:02:47;;;;;;;2.15;0.40;;;;;;;;;;5050687;28;20025;-84
2022/12/31 06:05:12;;;;;;;3.63;0.40;;;;;;;;;;5064747;28;20118;-87
2022/12/31 06:07:37;;;;;;;2.05;0.50;;;;;;;;;;5061785;28;20080;-85
2022/12/31 06:10:03;;;;;;;4.63;0.52;;;;;;;;;;5065777;28;20073;-85
2022/12/31 06:12:28;;;;;;;2.30;0.40;;;;;;;;;;5070469;28;20472;-86
2022/12/31 06:14:53;;;;;;;3.03;0.40;;;;;;;;;;5070401;28;20427;-86
2022/12/31 06:17:19;;;;;;;2.42;0.50;;;;;;;;;;5063221;28;20056;-85
2022/12/31 06:19:45;;;;;;;1.45;0.43;;;;;;;;;;5072055;28;20031;-85
2022/12/31 06:22:10;;;;;;;3.20;0.63;;;;;;;;;;5070060;28;20040;-85
2022/12/31 06:24:35;;;;;;;5.65;0.80;;;;;;;;;;5070607;28;20095;-86
2022/12/31 06:27:01;;;;;;;2.40;0.47;;;;;;;;;;5070480;28;20020;-85
2022/12/31 06:29:26;;;;;;;6.63;0.50;;;;;;;;;;5070564;28;20084;-84
2022/12/31 06:31:51;;;;;;;1.17;0.32;;;;;;;;;;5065442;28;20806;-85
2022/12/31 06:34:16;;;;;;;1.48;0.40;;;;;;;;;;5071510;28;20024;-85
2022/12/31 06:36:41;;;;;;;2.72;0.63;;;;;;;;;;5070155;28;20032;-84
2022/12/31 06:39:07;;;;;;;6.22;0.80;;;;;;;;;;5069843;28;20021;-84
2022/12/31 06:41:32;;;;;;;2.20;0.45;;;;;;;;;;5069969;28;20325;-85
2022/12/31 06:43:57;;;;;;;5.82;0.70;;;;;;;;;;5069501;28;20021;-85
2022/12/31 06:46:22;;;;;;;3.75;0.82;;;;;;;;;;5065408;28;20401;-85
2022/12/31 06:48:48;;;;;;;3.25;0.40;;;;;;;;;;5060351;28;20029;-85
2022/12/31 06:51:14;;;;;;;2.75;0.70;;;;;;;;;;5069853;28;20468;-85
2022/12/31 06:53:39;;;;;;;16.02;3.92;;;;;;;;;;5069751;28;20472;-84
2022/12/31 06:56:12;;;;;;;2.95;0.70;;;;;;;;;;5069778;28;20021;-84
2022/12/31 06:58:37;;;;;;;2.78;0.60;;;;;;;;;;5069581;28;20024;-84
2022/12/31 07:01:21;;;;;;;6.93;0.70;;;;;;;;;;5070132;28;20039;-85
2022/12/31 07:04:03;;;;;;;6.78;0.75;;;;;;;;;;5060386;28;20035;-85
2022/12/31 07:06:38;;;;;;;3.63;0.50;;;;;;;;;;5069752;28;20123;-85
2022/12/31 07:09:06;;;;;;;3.20;0.70;;;;;;;;;;5047080;28;20079;-85
2022/12/31 07:11:37;;;;;;;4.03;0.82;;;;;;;;;;5041134;28;20037;-85
2022/12/31 07:14:29;;;;;;;1.38;0.50;;;;;;;;;;5056990;28;20024;-84
2022/12/31 07:17:00;;;;;;;2.20;0.50;;;;;;;;;;5086902;28;20036;-84
2022/12/31 07:19:45;;;;;;;3.75;0.82;;;;;;;;;;5047619;28;20132;-84
2022/12/31 07:22:12;;;;;;;2.42;0.60;;;;;;;;;;5045649;28;20029;-84
2022/12/31 07:24:37;;;;;;;3.67;0.70;;;;;;;;;;5060333;28;20028;-84
2022/12/31 07:27:02;;;;;;;1.60;0.50;;;;;;;;;;5063746;28;20483;-84
2022/12/31 07:29:57;;;;;;;1.77;0.52;;;;;;;;;;5049790;28;20074;-84
2022/12/31 07:32:40;;;;;;;2.10;0.40;;;;;;;;;;5013834;28;20029;-84
2022/12/31 07:35:08;;;;;;;4.38;0.70;;;;;;;;;;5070005;28;20017;-83
2022/12/31 07:37:36;;;;;;;2.47;0.60;;;;;;;;;;5085535;28;20055;-84
2022/12/31 07:40:01;;;;;;;0.80;0.40;;;;;;;;;;5066918;28;20035;-83
2022/12/31 07:42:45;;;;;;;4.75;0.70;;;;;;;;;;5060371;28;20016;-85
2022/12/31 07:45:18;;;;;;;4.65;1.10;;;;;;;;;;5038288;28;20429;-84
2022/12/31 07:47:43;;;;;;;3.03;0.65;;;;;;;;;;5050507;28;20020;-84
2022/12/31 07:50:16;;;;;;;2.17;0.75;;;;;;;;;;5065107;28;20029;-85
2022/12/31 07:52:42;;;;;;;1.35;0.52;;;;;;;;;;5055660;28;20031;-85
2022/12/31 07:55:07;;;;;;;5.75;0.80;;;;;;;;;;5053868;28;20021;-85
2022/12/31 07:57:37;;;;;;;3.60;0.93;;;;;;;;;;5059160;28;20021;-85
2022/12/31 08:00:02;;;;;;;1.73;0.75;;;;;;;;;;5063822;28;20033;-85
2022/12/31 08:02:48;;;;;;;2.55;0.60;;;;;;;;;;5052638;28;20079;-85
2022/12/31 08:05:17;;;;;;;2.45;0.60;;;;;;;;;;5058198;28;20062;-85
2022/12/31 08:08:09;;;;;;;3.95;0.70;;;;;;;;;;5053277;28;20128;-86
2022/12/31 08:10:41;;;;;;;2.15;0.50;;;;;;;;;;5048435;28;20029;-84
2022/12/31 08:13:10;;;;;;;6.85;0.88;;;;;;;;;;5051411;28;20421;-84
2022/12/31 08:15:36;;;;;;;3.65;0.40;;;;;;;;;;5048432;28;20056;-83
2022/12/31 08:18:01;;;;;;;3.17;0.60;;;;;;;;;;5052192;28;20060;-83
2022/12/31 08:20:28;;;;;;;5.63;0.65;;;;;;;;;;5059356;28;20430;-84
2022/12/31 08:23:03;;;;;;;1.65;0.60;;;;;;;;;;5048632;28;20111;-85
2022/12/31 08:25:47;;;;;;;3.08;0.82;;;;;;;;;;5051339;28;20059;-84
2022/12/31 08:28:23;;;;;;;4.50;0.70;;;;;;;;;;5067326;28;20017;-85
2022/12/31 08:31:09;;;;;;;7.88;0.88;;;;;;;;;;5070932;28;20020;-84
2022/12/31 08:33:37;;;;;;;5.45;1.15;;;;;;;;;;5088292;28;20033;-85
2022/12/31 08:36:18;;;;;;;4.53;0.75;;;;;;;;;;5054399;28;20017;-85
2022/12/31 08:38:55;;;;;;;7.60;1.80;;;;;;;;;;5068932;28;20488;-84
2022/12/31 08:41:41;;;;;;;6.45;0.70;;;;;;;;;;5065352;28;20028;-85
2022/12/31 08:44:22;;;;;;;2.72;0.60;;;;;;;;;;5061103;28;20062;-86
2022/12/31 08:46:53;;;;;;;1.95;0.60;;;;;;;;;;5051340;28;20021;-85
2022/12/31 08:49:18;;;;;;;1.43;0.50;;;;;;;;;;5058501;28;20339;-85
2022/12/31 08:51:44;;;;;;;5.90;0.80;;;;;;;;;;5065560;28;20024;-85
2022/12/31 08:54:10;;;;;;;4.82;0.57;;;;;;;;;;5058333;28;20025;-84
2022/12/31 08:56:43;;;;;;;1.95;0.47;;;;;;;;;;5056748;28;20029;-85
2022/12/31 08:59:47;;;;;;;3.92;0.60;;;;;;;;;;5057563;28;20013;-85
2022/12/31 09:02:42;;;;;;;5.65;0.70;;;;;;;;;;5067509;28;20372;-86
2022/12/31 09:05:17;;;;;;;3.13;0.88;;;;;;;;;;5042187;28;20541;-85
2022/12/31 09:07:55;;;;;;;4.32;0.70;;;;;;;;;;5043732;28;20327;-84
2022/12/31 09:10:27;;;;;;;3.03;0.70;;;;;;;;;;5055025;28;20482;-84
2022/12/31 09:12:57;;;;;;;5.28;0.88;;;;;;;;;;5066416;28;20024;-86
2022/12/31 09:15:31;;;;;;;6.32;0.80;;;;;;;;;;5056527;28;20052;-84
2022/12/31 09:17:56;;;;;;;8.50;1.17;;;;;;;;;;5050596;28;20609;-86
2022/12/31 09:20:23;;;;;;;6.43;1.00;;;;;;;;;;5056688;28;20031;-82
2022/12/31 09:22:49;;;;;;;3.28;0.65;;;;;;;;;;5051728;28;20115;-82
2022/12/31 09:25:15;;;;;;;4.05;0.90;;;;;;;;;;5053076;28;20055;-81
2022/12/31 09:27:53;;;;;;;3.60;0.80;;;;;;;;;;5053322;28;20012;-82
2022/12/31 09:30:18;;;;;;;4.95;0.80;;;;;;;;;;5055527;28;20155;-82
2022/12/31 09:32:43;;;;;;;5.22;1.23;;;;;;;;;;5049588;28;20512;-82
2022/12/31 09:35:17;;;;;;;13.18;2.13;;;;;;;;;;5049502;28;20020;-81
2022/12/31 09:37:45;;;;;;;5.85;1.00;;;;;;;;;;5050039;28;20075;-81
2022/12/31 09:40:28;;;;;;;6.45;1.70;;;;;;;;;;5049905;28;20024;-82
2022/12/31 09:42:54;;;;;;;5.32;1.30;;;;;;;;;;5054555;28;20067;-82
2022/12/31 09:45:38;;;;;;;5.47;1.10;;;;;;;;;;5060309;28;20132;-80
2022/12/31 09:48:06;;;;;;;6.32;1.35;;;;;;;;;;5065041;28;20530;-81
2022/12/31 09:50:51;;;;;;;7.80;1.20;;;;;;;;;;5060412;28;20028;-81
2022/12/31 09:53:32;;;;;;;3.28;0.80;;;;;;;;;;5070046;28;20453;-82
2022/12/31 09:56:00;;;;;;;7.70;1.15;;;;;;;;;;5055096;28;20017;-81
2022/12/31 09:58:54;;;;;;;3.95;1.13;;;;;;;;;;5066832;28;20093;-81
2022/12/31 10:01:34;;;;;;;4.50;1.17;;;;;;;;;;5068202;28;20032;-81
2022/12/31 10:04:18;;;;;;;5.40;0.98;;;;;;;;;;5053835;28;20021;-81
2022/12/31 10:06:47;;;;;;;3.80;0.80;;;;;;;;;;5053511;28;20047;-81
2022/12/31 10:09:24;;;;;;;4.22;0.70;;;;;;;;;;5068051;28;20008;-80
2022/12/31 10:11:56;;;;;;;3.70;0.80;;;;;;;;;;5057888;28;20035;-82
2022/12/31 10:14:32;;;;;;;4.95;0.98;;;;;;;;;;5064344;28;20044;-81
2022/12/31 10:17:01;;;;;;;5.47;1.88;;;;;;;;;;5054899;28;20031;-82
2022/12/31 10:19:39;;;;;;;4.00;0.82;;;;;;;;;;5064556;28;20033;-81
2022/12/31 10:22:36;;;;;;;5.18;1.10;;;;;;;;;;5063365;28;20028;-82
2022/12/31 10:25:13;;;;;;;6.40;1.25;;;;;;;;;;5062960;28;20621;-82
2022/12/31 10:27:54;;;;;;;4.63;0.70;;;;;;;;;;5044580;28;20469;-83
2022/12/31 10:30:21;;;;;;;4.57;0.90;;;;;;;;;;5033032;28;20117;-82
2022/12/31 10:32:46;;;;;;;4.10;1.17;;;;;;;;;;5043156;28;20041;-82
2022/12/31 10:35:12;;;;;;;10.70;1.23;;;;;;;;;;5045964;28;20393;-82
2022/12/31 10:38:16;;;;;;;7.43;1.50;;;;;;;;;;5049030;28;20025;-81
2022/12/31 10:40:47;;;;;;;5.25;1.10;;;;;;;;;;5008814;28;20381;-80
2022/12/31 10:43:30;;;;;;;13.13;2.33;;;;;;;;;;5010720;28;20025;-82
2022/12/31 10:45:58;;;;;;;4.00;0.98;;;;;;;;;;5033081;28;20028;-82
2022/12/31 10:48:23;;;;;;;7.55;1.23;;;;;;;;;;5048464;28;20021;-82
2022/12/31 10:51:07;;;;;;;5.50;1.23;;;;;;;;;;5048753;28;20024;-82
2022/12/31 10:53:51;;;;;;;6.00;0.95;;;;;;;;;;5081165;28;20542;-81
2022/12/31 10:56:19;;;;;;;2.35;0.90;;;;;;;;;;5050260;28;20013;-81
2022/12/31 10:58:53;;;;;;;9.20;1.35;;;;;;;;;;5047955;28;20021;-81
2022/12/31 11:01:24;;;;;;;8.52;1.48;;;;;;;;;;5050247;28;20080;-82
2022/12/31 11:04:07;;;;;;;4.40;1.25;;;;;;;;;;5048375;28;20025;-81
2022/12/31 11:06:33;;;;;;;9.95;1.88;;;;;;;;;;5048667;28;20060;-82
2022/12/31 11:09:04;;;;;;;8.00;1.35;;;;;;;;;;5049120;28;20043;-82
2022/12/31 11:11:36;;;;;;;6.60;1.15;;;;;;;;;;5048331;28;20029;-81
2022/12/31 11:14:14;;;;;;;7.93;1.20;;;;;;;;;;5046498;28;20052;-80
2022/12/31 11:16:42;;;;;;;4.20;1.00;;;;;;;;;;5049244;28;20056;-81
2022/12/31 11:19:28;;;;;;;4.25;0.80;;;;;;;;;;5048303;28;20037;-80
2022/12/31 11:22:12;;;;;;;3.92;0.73;;;;;;;;;;5049114;28;20029;-81
2022/12/31 11:24:53;;;;;;;5.85;0.85;;;;;;;;;;5040622;28;20558;-80
2022/12/31 11:27:32;;;;;;;6.78;0.80;;;;;;;;;;5047703;28;20433;-80
2022/12/31 11:30:23;;;;;;;5.32;0.90;;;;;;;;;;5049523;28;20043;-81
2022/12/31 11:33:06;;;;;;;7.97;0.77;;;;;;;;;;5044988;28;20029;-80
2022/12/31 11:35:44;;;;;;;2.88;0.90;;;;;;;;;;5054540;28;20013;-80
2022/12/31 11:38:18;;;;;;;5.53;0.90;;;;;;;;;;5052225;28;20021;-80
2022/12/31 11:40:52;;;;;;;3.03;0.73;;;;;;;;;;5053135;28;20049;-80
2022/12/31 11:43:37;;;;;;;4.18;1.10;;;;;;;;;;5053010;28;20462;-80
2022/12/31 11:46:15;;;;;;;6.15;1.10;;;;;;;;;;5052926;28;20035;-81
2022/12/31 11:49:00;;;;;;;2.63;0.75;;;;;;;;;;5084356;28;20516;-80
2022/12/31 11:51:42;;;;;;;4.28;1.05;;;;;;;;;;5063136;28;20028;-80
2022/12/31 11:54:16;;;;;;;4.00;1.02;;;;;;;;;;5067798;28;20372;-81
2022/12/31 11:56:49;;;;;;;7.88;1.10;;;;;;;;;;5055233;28;20078;-80
2022/12/31 11:59:14;;;;;;;6.72;1.05;;;;;;;;;;5054120;28;20021;-81
2022/12/31 12:01:50;;;;;;;6.00;1.00;;;;;;;;;;5063622;28;20420;-80
2022/12/31 12:04:15;;;;;;;5.50;1.30;;;;;;;;;;5051582;28;20017;-81
2022/12/31 12:06:42;;;;;;;5.75;0.90;;;;;;;;;;5051270;28;20346;-81
2022/12/31 12:09:12;;;;;;;9.07;1.20;;;;;;;;;;5061181;28;20012;-81
2022/12/31 12:11:38;;;;;;;5.13;1.13;;;;;;;;;;5055935;28;20028;-81
2022/12/31 12:14:29;;;;;;;6.45;1.35;;;;;;;;;;5067067;28;20020;-81
2022/12/31 12:16:55;;;;;;;2.30;0.88;;;;;;;;;;5071776;28;20162;-81
2022/12/31 12:19:22;;;;;;;4.55;1.20;;;;;;;;;;5072481;28;20029;-80
2022/12/31 12:21:48;;;;;;;3.40;0.90;;;;;;;;;;5067106;28;20089;-80
2022/12/31 12:24:33;;;;;;;4.13;0.98;;;;;;;;;;5072371;28;20148;-80
2022/12/31 12:26:58;;;;;;;4.22;1.00;;;;;;;;;;5072088;28;20029;-80
2022/12/31 12:29:28;;;;;;;8.40;1.13;;;;;;;;;;5069833;28;20352;-80
2022/12/31 12:31:53;;;;;;;4.03;1.08;;;;;;;;;;5071603;28;20036;-80
2022/12/31 12:34:26;;;;;;;6.00;1.05;;;;;;;;;;5065143;28;20352;-80
2022/12/31 12:36:51;;;;;;;4.05;1.10;;;;;;;;;;5057163;28;20029;-81
2022/12/31 12:39:21;;;;;;;6.78;1.10;;;;;;;;;;5072933;28;20471;-81
2022/12/31 12:41:46;;;;;;;5.78;0.82;;;;;;;;;;5057965;28;20035;-81
2022/12/31 12:44:15;;;;;;;3.70;0.75;;;;;;;;;;5055089;28;20021;-81
2022/12/31 12:46:45;;;;;;;6.30;1.13;;;;;;;;;;5048241;28;20033;-80
2022/12/31 12:49:22;;;;;;;3.90;1.17;;;;;;;;;;5050692;28;20023;-81
2022/12/31 12:52:06;;;;;;;5.45;0.93;;;;;;;;;;5051183;28;20086;-81
2022/12/31 12:54:49;;;;;;;10.27;0.98;;;;;;;;;;5054917;28;20102;-81
2022/12/31 12:57:20;;;;;;;6.95;1.33;;;;;;;;;;5069212;28;20093;-81
2022/12/31 13:00:03;;;;;;;12.90;1.83;;;;;;;;;;5046013;28;20120;-81
2022/12/31 13:02:37;;;;;;;2.72;0.90;;;;;;;;;;5045458;28;20448;-81
2022/12/31 13:05:21;;;;;;;10.95;1.77;;;;;;;;;;5055026;28;20294;-81
2022/12/31 13:07:55;;;;;;;7.05;1.42;;;;;;;;;;5045293;28;20024;-81
2022/12/31 13:10:20;;;;;;;10.82;1.02;;;;;;;;;;5051112;28;20020;-80
2022/12/31 13:12:45;;;;;;;4.03;1.38;;;;;;;;;;5048082;28;20024;-81
2022/12/31 13:15:23;;;;;;;5.10;1.30;;;;;;;;;;5052021;28;20048;-81
2022/12/31 13:18:03;;;;;;;4.15;1.55;;;;;;;;;;5050932;28;20418;-81
2022/12/31 13:20:40;;;;;;;9.98;1.85;;;;;;;;;;5066436;28;20020;-80
2022/12/31 13:23:20;;;;;;;5.68;1.20;;;;;;;;;;5061938;28;20020;-81
2022/12/31 13:25:53;;;;;;;7.85;1.30;;;;;;;;;;5055915;28;20021;-81
2022/12/31 13:28:19;;;;;;;10.57;1.85;;;;;;;;;;5070833;28;20051;-81
2022/12/31 13:30:46;;;;;;;9.35;1.70;;;;;;;;;;5057570;28;20016;-81
2022/12/31 13:33:28;;;;;;;6.97;1.75;;;;;;;;;;5048975;28;20016;-85
2022/12/31 13:35:58;;;;;;;4.82;1.42;;;;;;;;;;5051533;28;20020;-84
2022/12/31 13:38:27;;;;;;;8.70;1.75;;;;;;;;;;5048257;28;20028;-84
2022/12/31 13:41:10;;;;;;;8.50;1.55;;;;;;;;;;5057511;28;20494;-84
2022/12/31 13:43:39;;;;;;;8.02;1.83;;;;;;;;;;5061821;28;20017;-83
2022/12/31 13:46:13;;;;;;;7.68;1.70;;;;;;;;;;5062043;28;20020;-84
2022/12/31 13:48:51;;;;;;;12.95;2.00;;;;;;;;;;5064437;28;20017;-85
2022/12/31 13:51:34;;;;;;;6.50;1.52;;;;;;;;;;5065444;28;20024;-84
2022/12/31 13:54:02;;;;;;;3.78;1.17;;;;;;;;;;5062851;28;20016;-84
2022/12/31 13:56:30;;;;;;;5.65;1.50;;;;;;;;;;5062726;28;20021;-84
2022/12/31 13:59:11;;;;;;;6.53;1.70;;;;;;;;;;5070411;28;20044;-83
2022/12/31 14:01:40;;;;;;;4.07;1.20;;;;;;;;;;5064893;28;20066;-84
2022/12/31 14:04:08;;;;;;;14.18;2.00;;;;;;;;;;5068826;28;20035;-85
2022/12/31 14:06:39;;;;;;;7.95;1.83;;;;;;;;;;5051317;28;20024;-85
2022/12/31 14:09:09;;;;;;;8.07;1.63;;;;;;;;;;5069829;28;20118;-84
2022/12/31 14:11:35;;;;;;;14.48;2.55;;;;;;;;;;5051881;28;20028;-84
2022/12/31 14:14:12;;;;;;;7.43;1.65;;;;;;;;;;5055858;28;20013;-85
2022/12/31 14:16:47;;;;;;;12.63;2.22;;;;;;;;;;5054515;28;20110;-82
2022/12/31 14:19:15;;;;;;;4.55;1.20;;;;;;;;;;5056400;28;20036;-84
2022/12/31 14:21:40;;;;;;;8.00;1.35;;;;;;;;;;5051899;28;20023;-82
2022/12/31 14:24:17;;;;;;;7.65;1.48;;;;;;;;;;5051041;28;20041;-83
2022/12/31 14:26:48;;;;;;;9.63;2.38;;;;;;;;;;5047833;28;20025;-82
2022/12/31 14:29:30;;;;;;;6.72;1.58;;;;;;;;;;5049209;28;20020;-82
2022/12/31 14:32:04;;;;;;;6.78;1.52;;;;;;;;;;5050472;28;20029;-81
2022/12/31 14:34:48;;;;;;;8.20;1.10;;;;;;;;;;5059514;28;20029;-82
2022/12/31 14:37:31;;;;;;;5.70;1.35;;;;;;;;;;5055953;28;20020;-82
2022/12/31 14:40:23;;;;;;;11.68;2.47;;;;;;;;;;5064808;28;20024;-84
2022/12/31 14:43:02;;;;;;;4.90;1.67;;;;;;;;;;5051014;28;20037;-83
2022/12/31 14:45:37;;;;;;;5.72;1.40;;;;;;;;;;5049460;28;20021;-86
2022/12/31 14:48:12;;;;;;;6.97;1.50;;;;;;;;;;5053139;28;20017;-83
2022/12/31 14:50:37;;;;;;;6.47;1.38;;;;;;;;;;5051232;28;20453;-84
2022/12/31 14:53:02;;;;;;;3.22;1.60;;;;;;;;;;5059404;28;20044;-83
2022/12/31 14:55:32;;;;;;;3.22;1.02;;;;;;;;;;5069664;28;20019;-84
2022/12/31 14:57:58;;;;;;;4.82;1.50;;;;;;;;;;5060611;28;20120;-81
2022/12/31 15:00:26;;;;;;;4.70;1.67;;;;;;;;;;5060760;28;20115;-81
2022/12/31 15:02:55;;;;;;;6.53;1.48;;;;;;;;;;5049945;28;20017;-82
2022/12/31 15:05:22;;;;;;;4.78;1.50;;;;;;;;;;5089599;28;20379;-82
2022/12/31 15:07:47;;;;;;;6.97;1.50;;;;;;;;;;5064649;28;20492;-81
2022/12/31 15:10:31;;;;;;;3.97;1.30;;;;;;;;;;5057157;28;20017;-81
2022/12/31 15:13:18;;;;;;;7.60;1.40;;;;;;;;;;5058111;28;20074;-82
2022/12/31 15:15:58;;;;;;;4.05;1.27;;;;;;;;;;5031628;28;20116;-82
2022/12/31 15:18:42;;;;;;;5.00;1.33;;;;;;;;;;5031540;28;20037;-82
2022/12/31 15:21:08;;;;;;;4.50;1.40;;;;;;;;;;5039606;28;20056;-82